createdAt,value
2018-08-19T00:00:04.034Z,21.63
2018-08-19T00:02:36.756Z,21.50
2018-08-19T00:05:14.337Z,21.36
2018-08-19T00:07:44.741Z,21.41
2018-08-19T00:10:15.396Z,21.45
2018-08-19T00:12:49.276Z,21.45
2018-08-19T00:15:19.716Z,21.39
2018-08-19T00:17:52.756Z,21.39
2018-08-19T00:20:23.036Z,21.33
2018-08-19T00:22:56.697Z,21.23
2018-08-19T00:25:33.495Z,21.22
2018-08-19T00:28:08.143Z,21.22
2018-08-19T00:30:39.543Z,21.13
2018-08-19T00:33:11.874Z,20.98
2018-08-19T00:35:45.086Z,20.92
2018-08-19T00:38:16.863Z,20.94
2018-08-19T00:40:46.399Z,20.92
2018-08-19T00:43:18.353Z,20.72
2018-08-19T00:45:49.522Z,20.64
2018-08-19T00:48:21.469Z,20.55
2018-08-19T00:50:51.266Z,20.52
2018-08-19T00:53:21.011Z,20.52
2018-08-19T00:55:50.905Z,20.43
2018-08-19T00:58:22.761Z,20.40
2018-08-19T01:00:52.829Z,20.36
2018-08-19T01:03:24.530Z,20.34
2018-08-19T01:05:55.272Z,20.29
2018-08-19T01:08:25.390Z,20.29
2018-08-19T01:10:56.783Z,20.36
2018-08-19T01:13:26.965Z,20.31
2018-08-19T01:15:57.221Z,20.25
2018-08-19T01:18:28.116Z,20.28
2018-08-19T01:21:11.079Z,20.08
2018-08-19T01:23:41.809Z,19.91
2018-08-19T01:26:12.771Z,19.93
2018-08-19T01:28:44.907Z,19.88
2018-08-19T01:31:16.275Z,19.87
2018-08-19T01:33:46.615Z,19.85
2018-08-19T01:36:16.709Z,19.76
2018-08-19T01:38:46.506Z,19.76
2018-08-19T01:41:16.560Z,19.70
2018-08-19T01:43:58.565Z,19.68
2018-08-19T01:46:28.518Z,19.70
2018-08-19T01:48:59.079Z,19.59
2018-08-19T01:51:29.046Z,19.58
2018-08-19T01:54:00.431Z,19.58
2018-08-19T01:56:30.815Z,19.59
2018-08-19T01:59:00.494Z,19.53
2018-08-19T02:01:43.071Z,19.53
2018-08-19T02:04:13.125Z,19.61
2018-08-19T02:06:44.436Z,19.61
2018-08-19T02:09:16.029Z,19.58
2018-08-19T02:11:47.938Z,19.48
2018-08-19T02:14:19.922Z,19.51
2018-08-19T02:16:51.403Z,19.41
2018-08-19T02:19:21.528Z,19.39
2018-08-19T02:21:52.192Z,19.46
2018-08-19T02:24:22.024Z,19.44
2018-08-19T02:26:53.011Z,19.38
2018-08-19T02:29:37.091Z,19.36
2018-08-19T02:32:09.192Z,19.31
2018-08-19T02:34:41.772Z,19.27
2018-08-19T02:37:17.874Z,19.22
2018-08-19T02:39:50.205Z,19.20
2018-08-19T02:42:27.144Z,19.18
2018-08-19T02:45:02.958Z,19.11
2018-08-19T02:47:33.793Z,19.08
2018-08-19T02:50:04.682Z,19.09
2018-08-19T02:52:37.646Z,19.10
2018-08-19T02:55:09.172Z,19.09
2018-08-19T02:57:42.537Z,19.10
2018-08-19T03:00:13.434Z,19.09
2018-08-19T03:02:44.154Z,18.98
2018-08-19T03:05:15.420Z,18.94
2018-08-19T03:07:45.747Z,18.94
2018-08-19T03:10:16.779Z,18.97
2018-08-19T03:12:47.329Z,18.85
2018-08-19T03:15:17.627Z,18.82
2018-08-19T03:17:49.612Z,18.86
2018-08-19T03:20:21.622Z,18.79
2018-08-19T03:22:52.578Z,18.75
2018-08-19T03:25:23.228Z,18.78
2018-08-19T03:27:52.831Z,18.78
2018-08-19T03:30:22.546Z,18.77
2018-08-19T03:32:57.427Z,18.77
2018-08-19T03:35:28.713Z,18.72
2018-08-19T03:38:02.179Z,18.82
2018-08-19T03:40:32.352Z,18.81
2018-08-19T03:43:02.938Z,18.81
2018-08-19T03:45:33.226Z,18.74
2018-08-19T03:48:03.160Z,18.67
2018-08-19T03:50:36.027Z,18.68
2018-08-19T03:53:05.990Z,18.62
2018-08-19T03:55:38.115Z,18.62
2018-08-19T03:58:09.174Z,18.50
2018-08-19T04:00:41.342Z,18.39
2018-08-19T04:03:19.134Z,18.44
2018-08-19T04:05:54.095Z,18.46
2018-08-19T04:08:27.362Z,18.49
2018-08-19T04:10:57.055Z,18.47
2018-08-19T04:13:29.246Z,18.46
2018-08-19T04:16:00.598Z,18.42
2018-08-19T04:18:35.298Z,18.42
2018-08-19T04:21:08.764Z,18.33
2018-08-19T04:23:41.480Z,18.35
2018-08-19T04:26:11.925Z,18.41
2018-08-19T04:28:44.348Z,18.42
2018-08-19T04:31:19.278Z,18.37
2018-08-19T04:33:49.702Z,18.30
2018-08-19T04:36:20.939Z,18.28
2018-08-19T04:38:50.696Z,18.24
2018-08-19T04:41:21.434Z,18.22
2018-08-19T04:43:51.467Z,18.21
2018-08-19T04:46:21.388Z,18.20
2018-08-19T04:48:51.603Z,18.10
2018-08-19T04:51:21.998Z,18.20
2018-08-19T04:53:52.165Z,18.28
2018-08-19T04:56:22.650Z,18.11
2018-08-19T04:58:55.497Z,18.39
2018-08-19T05:01:25.625Z,18.41
2018-08-19T05:03:55.978Z,18.42
2018-08-19T05:06:26.557Z,18.49
2018-08-19T05:08:56.254Z,18.60
2018-08-19T05:11:28.259Z,18.64
2018-08-19T05:14:02.050Z,18.73
2018-08-19T05:16:32.672Z,18.60
2018-08-19T05:19:05.389Z,18.65
2018-08-19T05:30:45.976Z,18.64
2018-08-19T05:33:15.645Z,18.71
2018-08-19T05:35:46.225Z,18.84
2018-08-19T05:38:17.275Z,18.92
2018-08-19T05:40:52.200Z,18.86
2018-08-19T05:43:23.136Z,18.82
2018-08-19T05:46:00.407Z,18.87
2018-08-19T05:48:30.989Z,19.02
2018-08-19T05:51:01.201Z,18.98
2018-08-19T05:53:32.451Z,19.04
2018-08-19T05:56:02.249Z,19.07
2018-08-19T05:58:32.167Z,19.12
2018-08-19T06:01:01.961Z,19.19
2018-08-19T06:03:32.091Z,19.28
2018-08-19T06:06:02.488Z,19.33
2018-08-19T06:08:31.928Z,19.43
2018-08-19T06:11:01.818Z,19.65
2018-08-19T06:13:32.418Z,19.67
2018-08-19T06:16:02.432Z,19.81
2018-08-19T06:18:32.328Z,19.93
2018-08-19T06:21:02.282Z,20.06
2018-08-19T06:23:32.445Z,20.09
2018-08-19T06:26:03.056Z,20.22
2018-08-19T06:28:33.358Z,20.30
2018-08-19T06:31:03.772Z,20.46
2018-08-19T06:33:34.001Z,20.53
2018-08-19T06:36:03.591Z,20.69
2018-08-19T06:38:33.247Z,20.71
2018-08-19T06:41:04.383Z,20.81
2018-08-19T06:43:34.243Z,20.88
2018-08-19T06:46:04.606Z,21.05
2018-08-19T06:48:35.758Z,21.22
2018-08-19T06:51:07.819Z,21.22
2018-08-19T06:53:39.276Z,21.43
2018-08-19T06:56:10.685Z,21.43
2018-08-19T06:58:42.537Z,21.44
2018-08-19T07:01:16.717Z,21.53
2018-08-19T07:03:53.349Z,21.79
2018-08-19T07:06:24.992Z,21.89
2018-08-19T07:08:58.175Z,21.88
2018-08-19T07:11:28.766Z,21.98
2018-08-19T07:13:59.733Z,21.82
2018-08-19T07:16:35.515Z,22.20
2018-08-19T07:19:13.446Z,22.38
2018-08-19T07:21:57.889Z,22.57
2018-08-19T07:24:31.961Z,22.44
2018-08-19T07:27:05.088Z,22.76
2018-08-19T07:29:38.152Z,22.81
2018-08-19T07:32:11.423Z,23.00
2018-08-19T07:34:43.779Z,23.05
2018-08-19T07:37:15.355Z,23.29
2018-08-19T07:39:50.758Z,23.19
2018-08-19T07:42:21.150Z,23.52
2018-08-19T07:44:51.167Z,23.50
2018-08-19T07:47:22.356Z,23.57
2018-08-19T07:54:59.662Z,23.90
2018-08-19T07:57:39.141Z,23.96
2018-08-19T08:00:12.795Z,24.03
2018-08-19T08:03:04.974Z,24.20
2018-08-19T08:05:43.016Z,24.23
2018-08-19T08:08:15.581Z,24.40
2018-08-19T08:10:46.736Z,24.57
2018-08-19T08:13:17.592Z,24.64
2018-08-19T08:15:56.064Z,24.78
2018-08-19T08:18:27.291Z,24.91
2018-08-19T08:21:03.032Z,24.94
2018-08-19T08:23:33.054Z,24.91
2018-08-19T08:26:03.399Z,25.00
2018-08-19T08:28:33.831Z,25.07
2018-08-19T08:31:08.632Z,25.26
2018-08-19T08:33:41.738Z,25.35
2018-08-19T08:36:11.881Z,25.46
2018-08-19T08:38:42.510Z,25.56
2018-08-19T08:41:12.230Z,25.60
2018-08-19T08:43:42.083Z,25.69
2018-08-19T08:46:12.739Z,25.60
2018-08-19T08:48:44.060Z,25.57
2018-08-19T08:51:14.162Z,25.72
2018-08-19T08:53:46.528Z,25.79
2018-08-19T08:56:16.684Z,25.85
2018-08-19T08:58:48.607Z,25.92
2018-08-19T09:01:19.630Z,25.95
2018-08-19T09:03:51.047Z,25.99
2018-08-19T09:06:25.729Z,26.09
2018-08-19T09:08:56.415Z,26.08
2018-08-19T09:11:27.305Z,25.99
2018-08-19T09:13:58.519Z,26.17
2018-08-19T09:16:28.082Z,26.26
2018-08-19T09:18:57.771Z,26.43
2018-08-19T09:21:31.415Z,26.35
2018-08-19T09:24:03.041Z,26.50
2018-08-19T09:26:34.143Z,26.41
2018-08-19T09:29:04.579Z,26.29
2018-08-19T09:31:38.342Z,26.47
2018-08-19T09:34:10.134Z,26.50
2018-08-19T09:36:41.727Z,26.35
2018-08-19T09:39:15.220Z,26.46
2018-08-19T09:41:47.278Z,26.70
2018-08-19T09:44:16.884Z,26.73
2018-08-19T09:46:48.760Z,27.00
2018-08-19T09:49:18.618Z,27.11
2018-08-19T09:51:49.237Z,27.17
2018-08-19T09:54:25.192Z,27.25
2018-08-19T09:56:55.977Z,27.36
2018-08-19T09:59:27.347Z,27.42
2018-08-19T10:01:58.440Z,27.66
2018-08-19T10:04:31.417Z,27.61
2018-08-19T10:07:12.394Z,27.85
2018-08-19T10:09:44.396Z,27.89
2018-08-19T10:12:16.780Z,27.83
2018-08-19T10:14:46.340Z,27.89
2018-08-19T10:17:18.558Z,27.98
2018-08-19T10:19:54.288Z,28.15
2018-08-19T10:22:29.851Z,28.38
2018-08-19T10:25:00.941Z,28.42
2018-08-19T10:27:32.198Z,28.54
2018-08-19T10:30:02.643Z,28.74
2018-08-19T10:32:33.006Z,28.77
2018-08-19T10:35:08.487Z,28.90
2018-08-19T10:37:40.626Z,28.88
2018-08-19T10:40:12.369Z,28.87
2018-08-19T10:42:43.173Z,28.89
2018-08-19T10:45:25.186Z,28.82
2018-08-19T10:47:57.427Z,29.00
2018-08-19T10:50:31.905Z,29.17
2018-08-19T10:53:06.651Z,29.31
2018-08-19T10:55:38.720Z,29.38
2018-08-19T10:58:14.073Z,29.28
2018-08-19T11:00:50.231Z,29.26
2018-08-19T11:03:25.753Z,29.34
2018-08-19T11:05:58.366Z,29.19
2018-08-19T11:08:28.400Z,29.35
2018-08-19T11:11:02.041Z,29.14
2018-08-19T11:13:34.331Z,29.05
2018-08-19T11:16:08.832Z,29.03
2018-08-19T11:18:42.953Z,29.14
2018-08-19T11:21:21.341Z,29.37
2018-08-19T11:23:51.170Z,29.18
2018-08-19T11:26:22.411Z,29.23
2018-08-19T11:28:59.134Z,29.27
2018-08-19T11:31:34.540Z,29.34
2018-08-19T11:34:08.009Z,29.58
2018-08-19T11:36:43.927Z,29.63
2018-08-19T11:39:17.536Z,29.72
2018-08-19T11:41:50.017Z,29.57
2018-08-19T11:44:21.678Z,29.72
2018-08-19T11:46:55.658Z,29.86
2018-08-19T11:49:29.237Z,30.18
2018-08-19T11:52:03.137Z,30.28
2018-08-19T11:54:37.008Z,30.23
2018-08-19T11:57:10.384Z,30.21
2018-08-19T11:59:47.972Z,30.24
2018-08-19T12:02:22.413Z,30.19
2018-08-19T12:04:52.911Z,30.36
2018-08-19T12:07:24.930Z,30.47
2018-08-19T12:10:00.682Z,30.46
2018-08-19T12:12:49.686Z,30.45
2018-08-19T12:15:21.803Z,30.51
2018-08-19T12:17:53.864Z,30.67
2018-08-19T12:20:39.416Z,30.80
2018-08-19T12:23:11.306Z,30.74
2018-08-19T12:25:41.620Z,30.77
2018-08-19T12:28:14.189Z,30.76
2018-08-19T12:30:45.549Z,31.10
2018-08-19T12:33:23.608Z,30.93
2018-08-19T12:35:57.661Z,30.93
2018-08-19T12:38:28.998Z,30.92
2018-08-19T12:41:02.491Z,30.85
2018-08-19T12:43:32.956Z,30.95
2018-08-19T12:46:05.653Z,30.94
2018-08-19T12:48:36.092Z,30.89
2018-08-19T12:51:06.743Z,30.92
2018-08-19T12:53:37.817Z,31.13
2018-08-19T12:56:09.979Z,31.26
2018-08-19T12:58:39.951Z,31.41
2018-08-19T13:01:11.098Z,31.67
2018-08-19T13:03:41.251Z,31.91
2018-08-19T13:06:11.597Z,32.03
2018-08-19T13:08:42.432Z,31.70
2018-08-19T13:11:12.419Z,31.84
2018-08-19T13:13:42.745Z,31.69
2018-08-19T13:16:18.068Z,31.69
2018-08-19T13:18:49.034Z,31.67
2018-08-19T13:21:19.626Z,31.63
2018-08-19T13:23:52.314Z,31.69
2018-08-19T13:26:22.092Z,31.94
2018-08-19T13:28:55.512Z,32.25
2018-08-19T13:31:30.725Z,32.23
2018-08-19T13:34:00.598Z,32.29
2018-08-19T13:36:31.644Z,32.32
2018-08-19T13:39:01.723Z,32.38
2018-08-19T13:41:32.053Z,32.49
2018-08-19T13:44:02.561Z,32.83
2018-08-19T13:46:32.152Z,32.79
2018-08-19T13:49:01.975Z,32.76
2018-08-19T13:51:32.526Z,32.89
2018-08-19T13:54:02.666Z,32.84
2018-08-19T13:56:33.596Z,32.96
2018-08-19T13:59:04.927Z,32.70
2018-08-19T14:01:36.368Z,32.92
2018-08-19T14:04:07.414Z,33.03
2018-08-19T14:06:37.332Z,33.08
2018-08-19T14:09:11.663Z,33.12
2018-08-19T14:11:44.755Z,33.15
2018-08-19T14:14:16.596Z,33.27
2018-08-19T14:16:47.700Z,33.41
2018-08-19T14:19:18.456Z,33.65
2018-08-19T14:21:48.305Z,33.76
2018-08-19T14:24:17.810Z,33.84
2018-08-19T14:26:48.519Z,33.88
2018-08-19T14:29:18.791Z,33.86
2018-08-19T14:31:57.892Z,33.98
2018-08-19T14:34:27.556Z,34.09
2018-08-19T14:36:57.877Z,33.64
2018-08-19T14:39:29.163Z,33.72
2018-08-19T14:42:00.800Z,33.80
2018-08-19T14:44:32.685Z,33.94
2018-08-19T14:47:03.304Z,33.80
2018-08-19T14:49:34.229Z,33.92
2018-08-19T14:52:09.072Z,33.81
2018-08-19T14:54:41.159Z,33.74
2018-08-19T14:57:12.754Z,33.26
2018-08-19T14:59:43.404Z,33.43
2018-08-19T15:02:14.472Z,33.64
2018-08-19T15:04:45.856Z,33.71
2018-08-19T15:07:15.678Z,33.84
2018-08-19T15:09:49.771Z,33.84
2018-08-19T15:12:23.945Z,33.78
2018-08-19T15:14:57.414Z,33.65
2018-08-19T15:17:27.744Z,33.50
2018-08-19T15:20:01.265Z,33.35
2018-08-19T15:22:33.492Z,33.58
2018-08-19T15:25:05.138Z,33.82
2018-08-19T15:27:40.795Z,34.01
2018-08-19T15:30:16.357Z,33.96
2018-08-19T15:32:48.200Z,34.07
2018-08-19T15:35:19.249Z,34.18
2018-08-19T15:37:57.114Z,34.09
2018-08-19T15:40:51.362Z,34.26
2018-08-19T15:43:21.624Z,34.45
2018-08-19T15:45:54.104Z,34.19
2018-08-19T15:48:24.905Z,34.16
2018-08-19T15:50:59.660Z,34.11
2018-08-19T15:53:29.925Z,34.20
2018-08-19T15:55:59.888Z,34.22
2018-08-19T15:58:30.478Z,34.17
2018-08-19T16:01:06.708Z,34.29
2018-08-19T16:03:37.984Z,34.17
2018-08-19T16:06:07.999Z,34.15
2018-08-19T16:08:39.350Z,34.27
2018-08-19T16:11:09.730Z,34.37
2018-08-19T16:13:42.620Z,34.45
2018-08-19T16:16:18.180Z,34.33
2018-08-19T16:18:50.062Z,34.19
2018-08-19T16:21:20.607Z,34.07
2018-08-19T16:23:50.684Z,34.01
2018-08-19T16:26:20.245Z,34.11
2018-08-19T16:28:50.435Z,34.08
2018-08-19T16:31:21.515Z,34.19
2018-08-19T16:33:54.094Z,34.15
2018-08-19T16:36:23.728Z,34.06
2018-08-19T16:38:54.102Z,33.86
2018-08-19T16:41:24.046Z,33.78
2018-08-19T16:43:54.125Z,33.51
2018-08-19T16:46:24.152Z,33.36
2018-08-19T16:48:53.890Z,33.33
2018-08-19T16:51:23.443Z,33.28
2018-08-19T16:53:53.164Z,33.13
2018-08-19T16:56:24.175Z,32.92
2018-08-19T16:58:54.015Z,32.66
2018-08-19T17:01:24.824Z,32.34
2018-08-19T17:03:55.439Z,32.36
2018-08-19T17:06:28.646Z,32.30
2018-08-19T17:08:59.873Z,32.21
2018-08-19T17:11:29.662Z,32.09
2018-08-19T17:14:00.723Z,31.76
2018-08-19T17:16:31.809Z,31.53
2018-08-19T17:19:04.403Z,31.30
2018-08-19T17:21:34.958Z,31.18
2018-08-19T17:24:07.093Z,31.11
2018-08-19T17:26:41.296Z,30.84
2018-08-19T17:29:16.645Z,30.82
2018-08-19T17:31:48.041Z,30.74
2018-08-19T17:34:20.464Z,30.57
2018-08-19T17:36:50.186Z,30.53
2018-08-19T17:39:22.522Z,30.41
2018-08-19T17:41:57.161Z,30.33
2018-08-19T17:44:26.873Z,30.23
2018-08-19T17:46:57.736Z,30.04
2018-08-19T17:49:28.597Z,29.98
2018-08-19T17:51:59.573Z,29.87
2018-08-19T17:54:31.575Z,29.73
2018-08-19T17:57:04.197Z,29.71
2018-08-19T17:59:33.988Z,29.61
2018-08-19T18:02:03.599Z,29.55
2018-08-19T18:05:05.525Z,29.44
2018-08-19T18:07:36.695Z,29.27
2018-08-19T18:10:11.238Z,29.14
2018-08-19T18:12:41.724Z,29.12
2018-08-19T18:15:14.393Z,28.95
2018-08-19T18:17:53.110Z,28.77
2018-08-19T18:20:27.720Z,28.63
2018-08-19T18:22:59.028Z,28.58
2018-08-19T18:25:28.710Z,28.45
2018-08-19T18:28:01.419Z,28.36
2018-08-19T18:30:39.538Z,28.28
2018-08-19T18:33:12.023Z,28.14
2018-08-19T18:35:44.316Z,28.11
2018-08-19T18:38:26.851Z,28.07
2018-08-19T18:40:58.216Z,28.02
2018-08-19T18:43:29.014Z,27.95
2018-08-19T18:45:58.870Z,27.84
2018-08-19T18:48:28.677Z,27.86
2018-08-19T18:51:00.525Z,27.68
2018-08-19T18:53:30.551Z,27.55
2018-08-19T18:56:03.202Z,27.59
2018-08-19T18:58:34.939Z,27.47
2018-08-19T19:01:07.390Z,27.42
2018-08-19T19:03:40.037Z,27.34
2018-08-19T19:06:14.761Z,27.30
2018-08-19T19:08:46.351Z,27.20
2018-08-19T19:11:24.963Z,27.09
2018-08-19T19:13:55.759Z,27.06
2018-08-19T19:16:39.858Z,27.07
2018-08-19T19:19:11.116Z,26.90
2018-08-19T19:21:49.779Z,26.83
2018-08-19T19:24:34.517Z,26.73
2018-08-19T19:29:54.147Z,26.57
2018-08-19T19:32:43.128Z,26.51
2018-08-19T19:35:23.327Z,26.41
2018-08-19T19:37:56.343Z,26.20
2018-08-19T19:40:28.653Z,26.31
2018-08-19T19:43:04.783Z,26.23
2018-08-19T19:45:55.666Z,26.11
2018-08-19T19:48:31.813Z,26.02
2018-08-19T19:51:04.029Z,25.97
2018-08-19T19:53:37.671Z,25.82
2018-08-19T19:56:22.020Z,25.72
2018-08-19T19:58:55.446Z,25.63
2018-08-19T20:01:35.963Z,25.47
2018-08-19T20:04:10.447Z,25.57
2018-08-19T20:06:44.936Z,25.51
2018-08-19T20:09:18.381Z,25.38
2018-08-19T20:11:53.386Z,25.35
2018-08-19T20:14:27.312Z,25.24
2018-08-19T20:16:58.896Z,25.16
2018-08-19T20:19:42.365Z,25.02
2018-08-19T20:22:17.656Z,25.12
2018-08-19T20:24:48.485Z,25.01
2018-08-19T20:27:21.078Z,24.89
2018-08-19T20:29:59.427Z,24.91
2018-08-19T20:32:35.302Z,24.90
2018-08-19T20:35:12.610Z,24.85
2018-08-19T20:37:43.552Z,24.80
2018-08-19T20:40:13.749Z,24.73
2018-08-19T20:42:44.773Z,24.70
2018-08-19T20:45:15.177Z,24.61
2018-08-19T20:47:45.480Z,24.60
2018-08-19T20:50:16.752Z,24.59
2018-08-19T20:52:49.334Z,24.53
2018-08-19T20:55:24.132Z,24.47
2018-08-19T20:57:59.383Z,24.38
2018-08-19T21:00:31.123Z,24.34
2018-08-19T21:03:01.600Z,24.31
2018-08-19T21:05:33.609Z,24.23
2018-08-19T21:08:11.176Z,24.12
2018-08-19T21:10:43.777Z,24.13
2018-08-19T21:13:15.330Z,24.19
2018-08-19T21:15:47.277Z,24.11
2018-08-19T21:18:17.128Z,24.04
2018-08-19T21:20:47.140Z,24.01
2018-08-19T21:23:17.241Z,23.91
2018-08-19T21:25:52.195Z,23.87
2018-08-19T21:28:22.028Z,23.85
2018-08-19T21:30:52.210Z,23.85
2018-08-19T21:33:22.418Z,23.84
2018-08-19T21:35:53.788Z,23.79
2018-08-19T21:38:24.405Z,23.74
2018-08-19T21:40:57.168Z,23.46
2018-08-19T21:43:29.637Z,23.51
2018-08-19T21:46:04.401Z,23.56
2018-08-19T21:48:34.513Z,23.56
2018-08-19T21:51:04.931Z,23.49
2018-08-19T21:53:34.465Z,23.50
2018-08-19T21:56:04.549Z,23.44
2018-08-19T21:58:34.743Z,23.44
2018-08-19T22:01:09.649Z,23.43
2018-08-19T22:03:46.071Z,23.33
2018-08-19T22:06:16.972Z,23.32
2018-08-19T22:08:55.764Z,23.05
2018-08-19T22:11:27.797Z,23.24
2018-08-19T22:13:59.140Z,23.25
2018-08-19T22:16:29.372Z,23.33
2018-08-19T22:18:59.737Z,23.28
2018-08-19T22:21:30.079Z,23.23
2018-08-19T22:24:01.131Z,23.21
2018-08-19T22:26:31.082Z,23.27
2018-08-19T22:29:13.783Z,23.22
2018-08-19T22:31:43.298Z,23.09
2018-08-19T22:34:13.511Z,23.05
2018-08-19T22:36:43.628Z,23.02
2018-08-19T22:39:18.615Z,23.07
2018-08-19T22:41:51.234Z,22.94
2018-08-19T22:44:20.839Z,22.86
2018-08-19T22:46:50.296Z,22.81
2018-08-19T22:49:22.302Z,22.88
2018-08-19T22:51:52.223Z,22.87
2018-08-19T22:54:24.919Z,22.89
2018-08-19T22:56:55.197Z,22.90
2018-08-19T22:59:25.423Z,22.81
2018-08-19T23:01:55.472Z,22.86
2018-08-19T23:04:25.745Z,22.82
2018-08-19T23:06:55.624Z,22.75
2018-08-19T23:09:25.145Z,22.57
2018-08-19T23:11:55.879Z,22.57
2018-08-19T23:14:36.195Z,22.61
2018-08-19T23:17:09.044Z,22.52
2018-08-19T23:19:38.654Z,22.48
2018-08-19T23:22:08.508Z,22.40
2018-08-19T23:24:40.045Z,22.33
2018-08-19T23:27:11.327Z,22.23
2018-08-19T23:29:40.775Z,22.27
2018-08-19T23:32:10.204Z,22.21
2018-08-19T23:34:40.434Z,22.15
2018-08-19T23:37:10.284Z,22.10
2018-08-19T23:39:40.143Z,22.09
2018-08-19T23:42:09.765Z,22.17
2018-08-19T23:44:40.327Z,22.14
2018-08-19T23:47:10.360Z,22.10
2018-08-19T23:49:40.021Z,22.09
2018-08-19T23:52:09.775Z,22.12
2018-08-19T23:54:39.926Z,22.10
2018-08-19T23:57:10.362Z,22.07
2018-08-19T23:59:40.158Z,21.94
